createdAt,value
2018-05-02T00:00:23.929Z,1.8
2018-05-02T00:01:23.339Z,1.8
2018-05-02T00:02:23.552Z,1.8
2018-05-02T00:03:24.555Z,1.8
2018-05-02T00:04:23.287Z,1.8
2018-05-02T00:05:23.327Z,1.6
2018-05-02T00:06:23.279Z,1.6
2018-05-02T00:07:23.301Z,1.6
2018-05-02T00:08:23.979Z,1.6
2018-05-02T00:09:23.314Z,1.6
2018-05-02T00:12:04.374Z,1.6
2018-05-02T00:12:12.635Z,1.6
2018-05-02T00:13:14.109Z,1.5
2018-05-02T00:14:13.166Z,1.5
2018-05-02T00:15:12.629Z,1.5
2018-05-02T00:16:12.721Z,1.5
2018-05-02T00:17:12.725Z,1.5
2018-05-02T00:18:12.714Z,1.5
2018-05-02T00:19:14.004Z,1.5
2018-05-02T00:20:12.738Z,1.5
2018-05-02T00:22:25.804Z,1.5
2018-05-02T00:23:28.230Z,1.6
2018-05-02T00:24:25.701Z,1.6
2018-05-02T00:25:25.720Z,1.7
2018-05-02T00:26:27.024Z,1.7
2018-05-02T00:27:25.989Z,1.7
2018-05-02T00:28:27.020Z,1.6
2018-05-02T00:29:28.531Z,1.6
2018-05-02T00:30:26.268Z,1.5
2018-05-02T00:31:27.370Z,1.5
2018-05-02T00:32:27.077Z,1.5
2018-05-02T00:33:27.542Z,1.5
2018-05-02T00:34:27.746Z,1.5
2018-05-02T00:35:26.349Z,1.5
2018-05-02T00:36:26.845Z,1.1
2018-05-02T00:37:27.120Z,1.1
2018-05-02T00:38:27.128Z,0.9
2018-05-02T00:39:26.113Z,0.9
2018-05-02T00:40:25.780Z,0.9
2018-05-02T00:42:27.025Z,0.7
2018-05-02T00:43:27.930Z,0.7
2018-05-02T00:44:26.550Z,0.7
2018-05-02T00:45:26.354Z,0.7
2018-05-02T00:47:27.423Z,1.0
2018-05-02T00:48:26.680Z,1.0
2018-05-02T00:49:27.148Z,1.0
2018-05-02T00:50:26.699Z,1.0
2018-05-02T00:51:25.760Z,0.9
2018-05-02T00:54:07.433Z,0.9
2018-05-02T00:54:19.789Z,0.9
2018-05-02T00:55:20.939Z,0.9
2018-05-02T00:56:20.939Z,0.7
2018-05-02T00:57:21.157Z,0.7
2018-05-02T00:58:20.943Z,0.7
2018-05-02T00:59:21.488Z,0.7
2018-05-02T01:00:20.862Z,0.7
2018-05-02T01:01:20.886Z,0.6
2018-05-02T01:02:22.228Z,0.6
2018-05-02T01:03:22.260Z,0.6
2018-05-02T01:04:22.248Z,0.6
2018-05-02T01:05:21.519Z,0.6
2018-05-02T01:06:20.928Z,0.7
2018-05-02T01:07:21.237Z,0.7
2018-05-02T01:08:20.903Z,0.7
2018-05-02T01:09:21.232Z,1.0
2018-05-02T01:10:21.181Z,1.0
2018-05-02T01:11:20.945Z,1.1
2018-05-02T01:12:21.563Z,1.1
2018-05-02T01:13:21.602Z,1.1
2018-05-02T01:14:21.700Z,1.2
2018-05-02T01:15:21.978Z,1.2
2018-05-02T01:16:21.693Z,1.3
2018-05-02T01:17:21.206Z,1.3
2018-05-02T01:18:21.703Z,1.3
2018-05-02T01:19:20.922Z,1.3
2018-05-02T01:20:21.219Z,1.3
2018-05-02T01:21:20.888Z,1.1
2018-05-02T01:22:20.929Z,1.1
2018-05-02T01:23:24.489Z,1.1
2018-05-02T01:24:21.212Z,1.1
2018-05-02T01:25:20.873Z,1.1
2018-05-02T01:26:21.173Z,1.0
2018-05-02T01:27:20.907Z,1.0
2018-05-02T01:28:20.934Z,1.0
2018-05-02T01:29:21.532Z,0.8
2018-05-02T01:30:20.887Z,0.8
2018-05-02T01:31:21.174Z,0.8
2018-05-02T01:32:22.615Z,0.7
2018-05-02T01:33:21.642Z,0.7
2018-05-02T01:34:21.602Z,0.8
2018-05-02T01:35:21.025Z,0.8
2018-05-02T01:36:21.219Z,0.8
2018-05-02T01:37:20.933Z,0.7
2018-05-02T01:38:21.027Z,0.7
2018-05-02T01:39:20.978Z,0.7
2018-05-02T01:40:20.970Z,0.7
2018-05-02T01:41:20.981Z,0.7
2018-05-02T01:42:21.189Z,0.7
2018-05-02T01:43:21.045Z,0.7
2018-05-02T01:44:21.000Z,0.6
2018-05-02T01:45:21.002Z,0.6
2018-05-02T01:46:20.928Z,0.6
2018-05-02T01:47:20.964Z,0.6
2018-05-02T01:48:20.982Z,0.6
2018-05-02T01:49:20.965Z,0.8
2018-05-02T01:50:20.970Z,0.8
2018-05-02T01:51:21.283Z,0.8
2018-05-02T01:52:22.024Z,1.1
2018-05-02T01:53:20.978Z,1.1
2018-05-02T01:54:21.021Z,1.2
2018-05-02T01:55:21.512Z,1.2
2018-05-02T01:56:23.257Z,1.2
2018-05-02T01:57:22.057Z,1.3
2018-05-02T01:58:24.327Z,1.3
2018-05-02T01:59:24.074Z,1.3
2018-05-02T02:00:20.996Z,1.3
2018-05-02T02:01:21.015Z,1.3
2018-05-02T02:02:21.015Z,1.2
2018-05-02T02:03:20.966Z,1.2
2018-05-02T02:04:21.028Z,1.2
2018-05-02T02:05:20.982Z,1.2
2018-05-02T02:06:21.039Z,1.2
2018-05-02T02:07:20.975Z,1.0
2018-05-02T02:08:20.994Z,1.0
2018-05-02T02:09:21.229Z,1.0
2018-05-02T02:10:21.713Z,0.9
2018-05-02T02:11:20.976Z,0.9
2018-05-02T02:12:21.029Z,0.8
2018-05-02T02:13:21.017Z,0.8
2018-05-02T02:14:21.346Z,0.8
2018-05-02T02:15:20.983Z,0.8
2018-05-02T02:16:21.651Z,0.8
2018-05-02T02:17:22.834Z,0.8
2018-05-02T02:19:22.208Z,0.8
2018-05-02T02:26:52.582Z,0.8
2018-05-02T02:27:00.865Z,0.8
2018-05-02T02:28:00.784Z,0.8
2018-05-02T02:29:01.131Z,0.8
2018-05-02T02:30:00.876Z,0.9
2018-05-02T02:31:00.845Z,0.9
2018-05-02T02:32:01.167Z,0.9
2018-05-02T02:33:00.867Z,0.9
2018-05-02T02:34:00.986Z,0.9
2018-05-02T02:35:00.814Z,0.9
2018-05-02T02:36:00.828Z,0.9
2018-05-02T02:37:00.896Z,0.9
2018-05-02T02:38:00.837Z,0.9
2018-05-02T02:39:00.884Z,0.9
2018-05-02T02:40:00.940Z,0.9
2018-05-02T02:41:00.888Z,1.2
2018-05-02T02:42:00.914Z,1.2
2018-05-02T02:43:01.136Z,1.3
2018-05-02T02:44:11.249Z,1.3
2018-05-02T02:45:00.844Z,1.3
2018-05-02T02:46:00.876Z,1.3
2018-05-02T02:47:00.873Z,1.3
2018-05-02T02:48:01.155Z,1.6
2018-05-02T02:49:00.894Z,1.6
2018-05-02T02:50:01.150Z,1.6
2018-05-02T02:51:01.118Z,1.7
2018-05-02T02:52:00.896Z,1.7
2018-05-02T02:53:00.881Z,1.8
2018-05-02T02:54:01.470Z,1.8
2018-05-02T02:55:01.291Z,1.8
2018-05-02T02:56:00.837Z,1.9
2018-05-02T02:57:00.826Z,1.9
2018-05-02T02:58:00.887Z,1.8
2018-05-02T02:59:00.941Z,1.8
2018-05-02T03:00:00.905Z,1.8
2018-05-02T03:01:01.789Z,1.7
2018-05-02T03:02:02.621Z,1.7
2018-05-02T03:03:01.437Z,1.6
2018-05-02T03:04:17.199Z,1.6
2018-05-02T03:05:01.110Z,1.6
2018-05-02T03:06:00.890Z,1.6
2018-05-02T03:07:01.187Z,1.6
2018-05-02T03:08:01.873Z,1.7
2018-05-02T03:09:01.238Z,1.7
2018-05-02T03:10:00.953Z,1.7
2018-05-02T03:11:00.907Z,1.7
2018-05-02T03:12:01.550Z,1.7
2018-05-02T03:13:00.976Z,1.7
2018-05-02T03:14:00.987Z,1.7
2018-05-02T03:15:01.191Z,1.7
2018-05-02T03:16:01.208Z,1.7
2018-05-02T03:17:00.986Z,1.7
2018-05-02T03:18:01.961Z,1.7
2018-05-02T03:19:01.168Z,1.6
2018-05-02T03:20:05.122Z,1.6
2018-05-02T03:21:01.643Z,1.6
2018-05-02T03:22:02.894Z,1.6
2018-05-02T03:23:01.710Z,1.6
2018-05-02T03:25:02.543Z,1.7
2018-05-02T03:26:04.584Z,1.7
2018-05-02T03:27:00.938Z,1.7
2018-05-02T03:28:01.774Z,1.7
2018-05-02T03:29:02.835Z,1.9
2018-05-02T03:30:01.770Z,1.9
2018-05-02T03:31:02.377Z,1.9
2018-05-02T03:32:00.942Z,1.9
2018-05-02T03:33:03.440Z,1.9
2018-05-02T03:34:01.552Z,1.9
2018-05-02T03:35:00.959Z,1.9
2018-05-02T03:36:01.895Z,1.9
2018-05-02T03:37:01.919Z,1.9
2018-05-02T03:38:02.694Z,1.9
2018-05-02T03:39:01.847Z,1.8
2018-05-02T03:40:00.999Z,1.8
2018-05-02T03:41:01.256Z,1.8
2018-05-02T03:42:03.070Z,1.8
2018-05-02T03:43:02.801Z,1.8
2018-05-02T03:44:01.065Z,1.9
2018-05-02T03:45:01.644Z,1.9
2018-05-02T03:46:01.835Z,1.9
2018-05-02T03:47:01.067Z,1.9
2018-05-02T03:48:01.907Z,1.9
2018-05-02T03:49:03.066Z,1.9
2018-05-02T03:50:02.436Z,1.9
2018-05-02T03:51:00.973Z,1.9
2018-05-02T03:52:01.956Z,1.9
2018-05-02T03:53:01.061Z,1.9
2018-05-02T03:54:01.681Z,1.9
2018-05-02T03:55:02.411Z,1.9
2018-05-02T03:56:01.880Z,1.9
2018-05-02T03:57:01.673Z,1.9
2018-05-02T03:59:03.854Z,1.9
2018-05-02T04:00:01.307Z,1.9
2018-05-02T04:01:03.659Z,1.9
2018-05-02T04:02:02.767Z,1.9
2018-05-02T04:03:03.955Z,1.9
2018-05-02T04:04:01.275Z,2.0
2018-05-02T04:05:01.494Z,2.0
2018-05-02T04:06:01.719Z,2.0
2018-05-02T04:07:04.588Z,2.0
2018-05-02T04:09:03.747Z,2.2
2018-05-02T04:10:03.156Z,2.2
2018-05-02T04:11:01.989Z,2.2
2018-05-02T04:12:01.358Z,2.3
2018-05-02T04:13:01.015Z,2.3
2018-05-02T04:14:00.986Z,2.3
2018-05-02T04:15:00.968Z,2.3
2018-05-02T04:16:03.509Z,2.3
2018-05-02T04:17:03.531Z,2.3
2018-05-02T04:18:01.818Z,2.3
2018-05-02T04:19:11.699Z,2.3
2018-05-02T04:20:01.074Z,2.3
2018-05-02T04:21:01.545Z,2.3
2018-05-02T04:22:02.437Z,2.0
2018-05-02T04:23:03.964Z,2.0
2018-05-02T04:24:01.007Z,2.0
2018-05-02T04:25:03.332Z,2.0
2018-05-02T04:26:01.933Z,2.0
2018-05-02T04:27:02.160Z,1.9
2018-05-02T04:28:01.688Z,1.9
2018-05-02T04:29:01.725Z,1.9
2018-05-02T04:30:01.655Z,2.0
2018-05-02T04:31:01.987Z,2.0
2018-05-02T04:32:03.324Z,2.0
2018-05-02T04:33:03.953Z,2.0
2018-05-02T04:34:01.285Z,2.0
2018-05-02T04:35:01.314Z,2.0
2018-05-02T04:36:01.279Z,2.0
2018-05-02T04:37:11.625Z,2.1
2018-05-02T04:38:01.325Z,2.1
2018-05-02T04:39:01.630Z,2.1
2018-05-02T04:40:01.030Z,2.1
2018-05-02T04:41:01.760Z,2.1
2018-05-02T04:42:02.197Z,2.1
2018-05-02T04:43:01.380Z,2.3
2018-05-02T04:44:02.284Z,2.3
2018-05-02T04:45:01.652Z,2.4
2018-05-02T04:46:01.084Z,2.4
2018-05-02T04:47:01.137Z,2.4
2018-05-02T04:48:03.195Z,2.4
2018-05-02T04:49:01.040Z,2.4
2018-05-02T04:50:02.392Z,2.7
2018-05-02T04:51:01.068Z,2.7
2018-05-02T04:52:01.027Z,2.7
2018-05-02T04:53:01.088Z,2.7
2018-05-02T04:54:02.645Z,2.7
2018-05-02T04:55:04.502Z,2.8
2018-05-02T04:56:02.655Z,2.8
2018-05-02T04:57:06.024Z,2.8
2018-05-02T05:07:56.165Z,3.0
2018-05-02T05:08:55.119Z,3.5
2018-05-02T05:09:51.697Z,3.5
2018-05-02T05:10:51.829Z,3.6
2018-05-02T05:11:52.133Z,3.6
2018-05-02T05:12:54.511Z,3.7
2018-05-02T05:13:51.686Z,3.7
2018-05-02T05:14:51.969Z,3.7
2018-05-02T05:15:52.992Z,3.7
2018-05-02T05:16:52.122Z,3.7
2018-05-02T05:17:56.215Z,3.8
2018-05-02T05:18:56.651Z,3.8
2018-05-02T05:19:51.756Z,3.8
2018-05-02T05:20:51.817Z,3.9
2018-05-02T05:21:51.821Z,3.9
2018-05-02T05:22:51.742Z,4.0
2018-05-02T05:23:51.739Z,4.0
2018-05-02T05:24:52.995Z,4.0
2018-05-02T05:25:51.664Z,4.2
2018-05-02T05:26:51.702Z,4.2
2018-05-02T05:27:52.795Z,4.2
2018-05-02T05:28:51.650Z,4.2
2018-05-02T05:29:52.316Z,4.2
2018-05-02T05:30:51.983Z,4.4
2018-05-02T05:31:53.482Z,4.4
2018-05-02T05:32:52.127Z,4.4
2018-05-02T05:33:53.811Z,4.6
2018-05-02T05:34:51.841Z,4.6
2018-05-02T05:35:52.126Z,4.7
2018-05-02T05:36:53.935Z,4.7
2018-05-02T05:37:51.833Z,4.7
2018-05-02T05:38:52.018Z,4.7
2018-05-02T05:39:52.057Z,4.7
2018-05-02T05:40:51.772Z,5.1
2018-05-02T05:41:52.063Z,5.1
2018-05-02T05:42:51.783Z,5.1
2018-05-02T05:43:51.729Z,5.5
2018-05-02T05:44:51.798Z,5.5
2018-05-02T05:45:51.775Z,5.5
2018-05-02T05:47:01.756Z,5.5
2018-05-02T05:47:51.821Z,5.5
2018-05-02T05:48:51.773Z,5.8
2018-05-02T05:49:51.772Z,5.8
2018-05-02T05:50:51.793Z,6.0
2018-05-02T05:51:51.770Z,6.0
2018-05-02T05:52:52.527Z,6.0
2018-05-02T05:53:51.836Z,6.0
2018-05-02T05:54:51.888Z,6.0
2018-05-02T05:55:52.246Z,6.1
2018-05-02T05:56:51.784Z,6.1
2018-05-02T05:57:52.130Z,6.1
2018-05-02T05:58:52.402Z,6.3
2018-05-02T05:59:51.914Z,6.3
2018-05-02T06:00:51.856Z,6.3
2018-05-02T06:01:53.326Z,6.3
2018-05-02T06:02:51.797Z,6.3
2018-05-02T06:03:51.804Z,6.5
2018-05-02T06:05:08.367Z,6.5
2018-05-02T06:05:51.779Z,6.5
2018-05-02T06:06:52.096Z,6.6
2018-05-02T06:07:51.796Z,6.6
2018-05-02T06:08:51.832Z,6.6
2018-05-02T06:09:51.733Z,6.6
2018-05-02T06:10:52.097Z,6.6
2018-05-02T06:11:51.822Z,6.7
2018-05-02T06:12:51.816Z,6.7
2018-05-02T06:13:52.079Z,6.8
2018-05-02T06:14:52.093Z,6.8
2018-05-02T06:15:51.767Z,6.8
2018-05-02T06:16:51.841Z,6.8
2018-05-02T06:17:52.146Z,6.8
2018-05-02T06:18:52.834Z,6.8
2018-05-02T06:19:53.118Z,6.8
2018-05-02T06:20:51.879Z,6.8
2018-05-02T06:21:51.800Z,6.8
2018-05-02T06:22:51.836Z,6.8
2018-05-02T06:23:51.862Z,6.8
2018-05-02T06:24:51.835Z,6.8
2018-05-02T06:25:51.838Z,6.8
2018-05-02T06:26:51.961Z,7.0
2018-05-02T06:27:51.919Z,7.0
2018-05-02T06:28:51.857Z,7.0
2018-05-02T06:29:52.090Z,7.0
2018-05-02T06:30:51.943Z,7.0
2018-05-02T06:31:51.854Z,7.1
2018-05-02T06:32:54.027Z,7.1
2018-05-02T06:33:51.903Z,7.1
2018-05-02T06:34:51.937Z,7.2
2018-05-02T06:35:51.868Z,7.2
2018-05-02T06:36:51.903Z,7.2
2018-05-02T06:37:52.389Z,7.2
2018-05-02T06:38:52.173Z,7.2
2018-05-02T06:39:52.214Z,7.3
2018-05-02T06:40:51.915Z,7.3
2018-05-02T06:41:51.890Z,7.4
2018-05-02T06:42:52.180Z,7.4
2018-05-02T06:43:52.846Z,7.4
2018-05-02T06:44:51.885Z,7.5
2018-05-02T06:45:52.212Z,7.5
2018-05-02T06:46:51.949Z,7.6
2018-05-02T06:47:51.866Z,7.6
2018-05-02T06:48:52.288Z,7.6
2018-05-02T06:49:51.844Z,7.6
2018-05-02T06:50:53.624Z,7.6
2018-05-02T06:51:52.167Z,7.7
2018-05-02T06:52:51.894Z,7.7
2018-05-02T06:53:51.868Z,7.7
2018-05-02T06:54:52.202Z,7.8
2018-05-02T06:55:51.895Z,7.8
2018-05-02T06:56:52.207Z,8.0
2018-05-02T06:57:51.932Z,8.0
2018-05-02T06:58:53.396Z,8.0
2018-05-02T06:59:52.468Z,8.0
2018-05-02T07:00:53.165Z,8.0
2018-05-02T07:02:28.235Z,8.0
2018-05-02T07:02:52.267Z,8.0
2018-05-02T07:03:51.941Z,8.0
2018-05-02T07:04:51.849Z,8.0
2018-05-02T07:05:52.149Z,8.0
2018-05-02T07:06:51.813Z,8.0
2018-05-02T07:07:52.214Z,8.0
2018-05-02T07:08:51.853Z,8.0
2018-05-02T07:09:51.905Z,7.9
2018-05-02T07:10:51.936Z,7.9
2018-05-02T07:11:51.862Z,7.9
2018-05-02T07:14:04.654Z,8.0
2018-05-02T07:15:04.816Z,8.1
2018-05-02T07:16:04.624Z,8.1
2018-05-02T07:17:04.673Z,8.1
2018-05-02T07:18:05.925Z,8.0
2018-05-02T07:19:04.597Z,8.0
2018-05-02T07:20:04.926Z,8.2
2018-05-02T07:21:04.583Z,8.2
2018-05-02T07:22:04.618Z,8.2
2018-05-02T07:23:04.673Z,8.2
2018-05-02T07:24:07.087Z,8.2
2018-05-02T07:25:04.660Z,8.4
2018-05-02T07:26:04.953Z,8.4
2018-05-02T07:27:04.654Z,8.4
2018-05-02T07:28:04.698Z,8.5
2018-05-02T07:29:04.615Z,8.5
2018-05-02T07:30:04.695Z,8.5
2018-05-02T07:31:05.880Z,8.5
2018-05-02T07:32:04.932Z,8.5
2018-05-02T07:33:04.728Z,8.4
2018-05-02T07:34:05.196Z,8.4
2018-05-02T07:35:04.607Z,8.4
2018-05-02T07:36:04.616Z,8.4
2018-05-02T07:37:04.868Z,8.4
2018-05-02T07:38:04.620Z,8.4
2018-05-02T07:39:04.854Z,8.4
2018-05-02T07:40:04.921Z,8.6
2018-05-02T07:41:04.921Z,8.6
2018-05-02T07:42:04.725Z,8.6
2018-05-02T07:43:04.612Z,8.6
2018-05-02T07:44:06.872Z,8.6
2018-05-02T07:45:04.681Z,8.6
2018-05-02T07:46:04.698Z,8.6
2018-05-02T07:47:04.681Z,8.6
2018-05-02T07:48:04.697Z,8.7
2018-05-02T07:49:04.947Z,8.7
2018-05-02T07:50:04.628Z,8.7
2018-05-02T07:51:04.658Z,8.8
2018-05-02T07:52:04.780Z,8.8
2018-05-02T07:53:04.986Z,8.8
2018-05-02T07:54:05.256Z,8.8
2018-05-02T07:56:04.716Z,9.0
2018-05-02T07:57:04.773Z,9.0
2018-05-02T07:58:05.038Z,9.2
2018-05-02T07:59:05.043Z,9.2
2018-05-02T08:00:04.686Z,9.2
2018-05-02T08:01:04.718Z,9.3
2018-05-02T08:02:04.750Z,9.3
2018-05-02T08:03:04.986Z,9.5
2018-05-02T08:04:04.979Z,9.5
2018-05-02T08:05:04.754Z,9.5
2018-05-02T08:06:04.986Z,9.6
2018-05-02T08:07:04.691Z,9.6
2018-05-02T08:08:04.692Z,9.6
2018-05-02T08:09:04.996Z,9.6
2018-05-02T08:10:04.703Z,9.6
2018-05-02T08:11:05.108Z,9.6
2018-05-02T08:12:04.718Z,9.6
2018-05-02T08:13:04.674Z,9.9
2018-05-02T08:14:04.751Z,9.9
2018-05-02T08:15:04.711Z,9.9
2018-05-02T08:16:04.750Z,9.9
2018-05-02T08:17:04.749Z,9.9
2018-05-02T08:18:05.311Z,9.9
2018-05-02T08:19:04.719Z,10.1
2018-05-02T08:20:04.989Z,10.1
2018-05-02T08:21:05.025Z,10.2
2018-05-02T08:22:14.980Z,10.2
2018-05-02T08:23:04.760Z,10.2
2018-05-02T08:24:04.991Z,10.7
2018-05-02T08:25:04.769Z,10.7
2018-05-02T08:26:05.007Z,10.8
2018-05-02T08:27:04.750Z,10.8
2018-05-02T08:28:04.706Z,10.8
2018-05-02T08:29:04.776Z,10.8
2018-05-02T08:30:04.988Z,10.8
2018-05-02T08:31:04.787Z,10.8
2018-05-02T08:32:06.920Z,10.8
2018-05-02T08:33:04.758Z,10.8
2018-05-02T08:34:04.973Z,10.7
2018-05-02T08:35:04.797Z,10.7
2018-05-02T08:36:04.739Z,11.0
2018-05-02T08:37:04.779Z,11.0
2018-05-02T08:38:05.025Z,11.0
2018-05-02T08:39:05.057Z,11.2
2018-05-02T08:40:04.779Z,11.2
2018-05-02T08:41:04.824Z,11.2
2018-05-02T08:42:05.464Z,11.2
2018-05-02T08:43:05.019Z,11.2
2018-05-02T08:44:05.000Z,11.4
2018-05-02T08:45:04.860Z,11.4
2018-05-02T08:46:05.048Z,11.6
2018-05-02T08:47:04.783Z,11.6
2018-05-02T08:48:04.826Z,11.6
2018-05-02T08:49:04.807Z,11.6
2018-05-02T08:50:04.844Z,11.6
2018-05-02T08:51:04.754Z,11.6
2018-05-02T08:52:04.804Z,11.6
2018-05-02T08:53:04.778Z,11.6
2018-05-02T08:54:04.747Z,11.7
2018-05-02T08:55:05.124Z,11.7
2018-05-02T08:56:04.803Z,11.7
2018-05-02T08:57:04.761Z,11.7
2018-05-02T08:58:04.845Z,11.7
2018-05-02T08:59:05.094Z,11.8
2018-05-02T09:00:04.806Z,11.8
2018-05-02T09:01:05.361Z,11.8
2018-05-02T09:02:04.791Z,11.6
2018-05-02T09:03:04.768Z,11.6
2018-05-02T09:04:04.864Z,11.6
2018-05-02T09:05:04.835Z,11.6
2018-05-02T09:06:04.801Z,11.6
2018-05-02T09:07:05.155Z,11.6
2018-05-02T09:08:04.830Z,11.6
2018-05-02T09:09:05.123Z,12.0
2018-05-02T09:10:04.820Z,12.0
2018-05-02T09:11:04.836Z,12.0
2018-05-02T09:12:05.073Z,12.3
2018-05-02T09:13:04.834Z,12.3
2018-05-02T09:14:04.848Z,12.8
2018-05-02T09:15:04.885Z,12.8
2018-05-02T09:16:04.837Z,12.8
2018-05-02T09:17:04.812Z,12.8
2018-05-02T09:18:04.808Z,12.8
2018-05-02T09:19:04.813Z,12.8
2018-05-02T09:20:04.856Z,13.0
2018-05-02T09:21:04.830Z,13.0
2018-05-02T09:22:04.831Z,13.2
2018-05-02T09:23:04.812Z,13.2
2018-05-02T09:24:05.121Z,13.2
2018-05-02T09:25:05.079Z,13.2
2018-05-02T09:26:04.885Z,13.2
2018-05-02T09:27:04.801Z,13.0
2018-05-02T09:28:04.852Z,13.0
2018-05-02T09:29:05.529Z,13.0
2018-05-02T09:30:04.828Z,12.9
2018-05-02T09:31:04.917Z,12.9
2018-05-02T09:32:04.900Z,12.9
2018-05-02T09:33:04.913Z,12.9
2018-05-02T09:34:05.160Z,12.9
2018-05-02T09:35:04.827Z,13.3
2018-05-02T09:36:05.145Z,13.3
2018-05-02T09:37:05.103Z,13.4
2018-05-02T09:38:04.841Z,13.4
2018-05-02T09:39:05.033Z,13.4
2018-05-02T09:40:04.828Z,13.9
2018-05-02T09:41:05.147Z,13.9
2018-05-02T09:42:04.945Z,14.0
2018-05-02T09:43:04.841Z,14.0
2018-05-02T09:44:08.685Z,14.0
2018-05-02T09:45:05.131Z,14.3
2018-05-02T09:46:04.894Z,14.3
2018-05-02T09:47:06.771Z,14.7
2018-05-02T09:48:05.251Z,14.7
2018-05-02T09:49:06.317Z,14.7
2018-05-02T09:50:05.208Z,14.8
2018-05-02T09:51:05.099Z,14.8
2018-05-02T09:52:06.825Z,14.8
2018-05-02T09:53:06.146Z,14.8
2018-05-02T09:54:06.261Z,14.8
2018-05-02T09:56:05.776Z,14.9
2018-05-02T09:57:04.843Z,14.9
2018-05-02T09:58:04.909Z,14.3
2018-05-02T10:00:06.307Z,14.2
2018-05-02T10:02:04.968Z,14.2
2018-05-02T10:03:05.991Z,13.8
2018-05-02T10:04:04.968Z,13.8
2018-05-02T10:05:06.138Z,14.0
2018-05-02T10:06:06.003Z,14.0
2018-05-02T10:07:04.966Z,14.0
2018-05-02T10:09:04.945Z,14.1
2018-05-02T10:10:04.903Z,14.1
2018-05-02T10:11:04.923Z,14.1
2018-05-02T10:12:04.884Z,14.1
2018-05-02T10:13:05.712Z,14.1
2018-05-02T10:14:05.926Z,14.1
2018-05-02T10:15:06.121Z,14.3
2018-05-02T10:16:06.073Z,14.3
2018-05-02T10:17:06.018Z,14.3
2018-05-02T10:18:06.545Z,14.6
2018-05-02T10:19:07.053Z,14.6
2018-05-02T10:20:06.815Z,14.6
2018-05-02T10:21:07.864Z,14.7
2018-05-02T10:22:05.470Z,14.7
2018-05-02T10:23:04.923Z,14.4
2018-05-02T10:24:09.665Z,14.4
2018-05-02T10:25:07.454Z,14.4
2018-05-02T10:27:06.203Z,14.2
2018-05-02T10:28:07.457Z,14.4
2018-05-02T10:29:05.543Z,14.4
2018-05-02T10:31:08.211Z,14.0
2018-05-02T10:33:07.115Z,14.0
2018-05-02T10:35:08.771Z,14.0
2018-05-02T10:36:08.258Z,14.3
2018-05-02T10:37:07.577Z,14.3
2018-05-02T10:38:11.878Z,14.7
2018-05-02T10:39:07.928Z,14.7
2018-05-02T10:40:21.181Z,14.7
2018-05-02T10:41:17.031Z,14.8
2018-05-02T10:42:06.373Z,14.8
2018-05-02T10:43:05.321Z,14.5
2018-05-02T10:46:05.073Z,14.5
2018-05-02T10:47:07.964Z,14.5
2018-05-02T10:48:05.475Z,14.9
2018-05-02T10:49:06.106Z,14.9
2018-05-02T10:50:05.005Z,14.9
2018-05-02T10:54:09.852Z,14.7
2018-05-02T10:55:07.707Z,14.7
2018-05-02T10:56:13.768Z,14.7
2018-05-02T10:57:05.329Z,14.7
2018-05-02T10:58:05.744Z,14.7
2018-05-02T10:59:06.251Z,15.0
2018-05-02T11:00:05.239Z,15.0
2018-05-02T11:01:08.261Z,15.6
2018-05-02T11:02:15.598Z,15.6
2018-05-02T11:03:22.451Z,15.6
2018-05-02T11:04:05.488Z,16.0
2018-05-02T11:05:05.231Z,16.0
2018-05-02T11:06:05.341Z,15.9
2018-05-02T11:07:06.026Z,15.9
2018-05-02T11:08:05.245Z,15.9
2018-05-02T11:09:05.231Z,15.2
2018-05-02T11:10:05.327Z,15.2
2018-05-02T11:11:05.620Z,15.9
2018-05-02T11:12:04.999Z,15.9
2018-05-02T11:13:07.836Z,15.9
2018-05-02T11:14:07.166Z,16.0
2018-05-02T11:15:07.881Z,16.0
2018-05-02T11:16:12.422Z,16.0
2018-05-02T11:17:09.349Z,16.0
2018-05-02T11:18:05.193Z,16.0
2018-05-02T11:19:05.065Z,16.3
2018-05-02T11:20:05.399Z,16.3
2018-05-02T11:21:05.780Z,16.3
2018-05-02T11:22:05.296Z,16.2
2018-05-02T11:23:05.625Z,16.2
2018-05-02T11:24:06.464Z,16.4
2018-05-02T11:25:15.852Z,16.4
2018-05-02T11:26:08.363Z,16.4
2018-05-02T11:27:05.830Z,16.3
2018-05-02T11:28:08.500Z,16.3
2018-05-02T11:29:07.029Z,15.9
2018-05-02T11:30:06.630Z,15.9
2018-05-02T11:31:05.063Z,15.9
2018-05-02T11:32:05.150Z,15.9
2018-05-02T11:33:07.382Z,15.9
2018-05-02T11:36:12.116Z,15.9
2018-05-02T11:37:07.384Z,15.8
2018-05-02T11:38:05.036Z,15.8
2018-05-02T11:39:05.175Z,15.7
2018-05-02T11:40:08.242Z,15.7
2018-05-02T11:41:05.148Z,15.7
2018-05-02T11:42:07.504Z,15.7
2018-05-02T11:44:06.041Z,15.6
2018-05-02T11:45:06.205Z,15.6
2018-05-02T11:46:06.075Z,15.6
2018-05-02T11:47:05.310Z,15.5
2018-05-02T11:48:05.790Z,15.5
2018-05-02T11:49:06.338Z,15.5
2018-05-02T11:50:08.253Z,15.5
2018-05-02T11:51:08.802Z,15.5
2018-05-02T11:52:06.561Z,15.8
2018-05-02T11:54:05.827Z,15.8
2018-05-02T11:55:11.363Z,15.8
2018-05-02T11:56:05.563Z,15.8
2018-05-02T11:58:05.240Z,16.3
2018-05-02T11:59:05.215Z,16.3
2018-05-02T12:00:05.540Z,16.4
2018-05-02T12:01:05.434Z,16.4
2018-05-02T12:02:06.011Z,16.1
2018-05-02T12:03:05.407Z,16.1
2018-05-02T12:04:07.912Z,16.1
2018-05-02T12:05:05.735Z,16.4
2018-05-02T12:06:08.143Z,16.4
2018-05-02T12:07:05.729Z,16.6
2018-05-02T12:08:05.675Z,16.6
2018-05-02T12:09:08.062Z,16.6
2018-05-02T12:11:06.152Z,16.6
2018-05-02T12:12:05.726Z,16.4
2018-05-02T12:13:10.837Z,16.4
2018-05-02T12:14:05.132Z,16.4
2018-05-02T12:15:07.289Z,16.4
2018-05-02T12:16:06.082Z,16.4
2018-05-02T12:18:07.237Z,16.4
2018-05-02T12:19:05.201Z,16.4
2018-05-02T12:20:07.850Z,16.3
2018-05-02T12:21:05.903Z,16.3
2018-05-02T12:22:05.558Z,16.3
2018-05-02T12:23:05.320Z,16.5
2018-05-02T12:24:05.525Z,16.5
2018-05-02T12:25:05.700Z,16.5
2018-05-02T12:26:05.247Z,16.5
2018-05-02T12:27:05.301Z,16.5
2018-05-02T12:28:05.241Z,16.4
2018-05-02T12:29:05.807Z,16.4
2018-05-02T12:30:05.809Z,15.9
2018-05-02T12:31:05.223Z,15.9
2018-05-02T12:32:05.563Z,15.9
2018-05-02T12:33:05.660Z,16.0
2018-05-02T12:34:05.289Z,16.0
2018-05-02T12:35:05.267Z,16.4
2018-05-02T12:36:05.889Z,16.4
2018-05-02T12:37:05.319Z,16.4
2018-05-02T12:38:05.266Z,16.4
2018-05-02T12:39:05.376Z,16.4
2018-05-02T12:40:05.283Z,16.0
2018-05-02T12:41:05.624Z,16.0
2018-05-02T12:42:05.297Z,16.0
2018-05-02T12:43:05.603Z,15.9
2018-05-02T12:44:05.675Z,15.9
2018-05-02T12:45:05.383Z,15.9
2018-05-02T12:46:05.339Z,15.9
2018-05-02T12:47:09.115Z,15.9
2018-05-02T12:48:06.020Z,16.1
2018-05-02T12:49:07.573Z,16.1
2018-05-02T12:50:05.324Z,16.2
2018-05-02T12:51:06.178Z,16.2
2018-05-02T12:52:05.313Z,16.2
2018-05-02T12:53:06.071Z,16.2
2018-05-02T12:54:06.596Z,16.2
2018-05-02T12:55:05.393Z,16.2
2018-05-02T12:56:05.559Z,16.2
2018-05-02T12:57:05.633Z,16.2
2018-05-02T12:58:08.431Z,16.2
2018-05-02T12:59:05.382Z,16.2
2018-05-02T13:00:05.682Z,16.2
2018-05-02T13:01:05.942Z,16.0
2018-05-02T13:02:05.966Z,16.0
2018-05-02T13:03:05.671Z,15.9
2018-05-02T13:04:05.452Z,15.9
2018-05-02T13:05:05.410Z,15.9
2018-05-02T13:06:05.450Z,16.0
2018-05-02T13:07:06.153Z,16.0
2018-05-02T13:08:05.547Z,16.0
2018-05-02T13:09:06.138Z,16.0
2018-05-02T13:10:05.761Z,16.0
2018-05-02T13:11:06.110Z,15.9
2018-05-02T13:12:05.349Z,15.9
2018-05-02T13:13:05.399Z,16.0
2018-05-02T13:14:05.956Z,16.0
2018-05-02T13:15:06.545Z,16.0
2018-05-02T13:16:05.329Z,16.1
2018-05-02T13:17:06.211Z,16.1
2018-05-02T13:18:06.528Z,15.8
2018-05-02T13:19:08.625Z,15.8
2018-05-02T13:20:06.078Z,15.8
2018-05-02T13:21:07.006Z,16.0
2018-05-02T13:22:06.301Z,16.0
2018-05-02T13:23:05.883Z,16.0
2018-05-02T13:24:05.881Z,16.1
2018-05-02T13:25:06.650Z,16.1
2018-05-02T13:26:07.696Z,16.0
2018-05-02T13:27:06.889Z,16.0
2018-05-02T13:28:06.381Z,16.0
2018-05-02T13:29:05.361Z,16.1
2018-05-02T13:30:05.435Z,16.1
2018-05-02T13:31:06.107Z,16.0
2018-05-02T13:32:05.364Z,16.0
2018-05-02T13:33:05.563Z,16.0
2018-05-02T13:34:06.179Z,16.1
2018-05-02T13:35:16.141Z,16.1
2018-05-02T13:36:05.987Z,16.1
2018-05-02T13:37:06.480Z,16.1
2018-05-02T13:38:06.734Z,16.1
2018-05-02T13:40:05.402Z,16.0
2018-05-02T13:41:05.522Z,16.0
2018-05-02T13:42:05.391Z,16.0
2018-05-02T13:43:06.267Z,16.0
2018-05-02T13:44:06.054Z,15.8
2018-05-02T13:45:05.416Z,15.8
2018-05-02T13:46:05.453Z,15.8
2018-05-02T13:47:05.818Z,15.8
2018-05-02T13:48:05.400Z,15.8
2018-05-02T13:49:05.319Z,15.9
2018-05-02T13:50:05.456Z,15.9
2018-05-02T13:52:08.104Z,15.8
2018-05-02T13:53:05.363Z,15.8
2018-05-02T13:54:05.560Z,16.0
2018-05-02T13:55:05.493Z,16.0
2018-05-02T13:56:07.224Z,16.0
2018-05-02T13:57:06.475Z,15.8
2018-05-02T13:58:05.954Z,15.8
2018-05-02T13:59:05.953Z,15.8
2018-05-02T14:00:08.007Z,15.8
2018-05-02T14:01:06.684Z,15.8
2018-05-02T14:02:06.402Z,15.8
2018-05-02T14:03:05.538Z,15.8
2018-05-02T14:04:05.875Z,15.7
2018-05-02T14:05:05.845Z,15.7
2018-05-02T14:06:05.457Z,15.7
2018-05-02T14:07:05.961Z,15.9
2018-05-02T14:08:06.096Z,15.9
2018-05-02T14:09:08.102Z,15.9
2018-05-02T14:10:05.694Z,15.9
2018-05-02T14:11:05.531Z,15.9
2018-05-02T14:12:05.436Z,15.8
2018-05-02T14:13:05.712Z,15.8
2018-05-02T14:14:06.132Z,15.9
2018-05-02T14:15:05.433Z,15.9
2018-05-02T14:16:05.554Z,15.9
2018-05-02T14:17:06.047Z,15.9
2018-05-02T14:18:05.486Z,15.9
2018-05-02T14:19:05.718Z,16.0
2018-05-02T14:20:05.472Z,16.0
2018-05-02T14:21:06.093Z,16.0
2018-05-02T14:22:08.792Z,16.0
2018-05-02T14:23:06.431Z,16.0